Airports

 

 

Airport Name Latest METAR Visual Conditions
Atlanta International (ATL) KATL 181952Z COR 18014G22KT 10SM SCT048 SCT060 BKN250 26/13 A2987 RMK AO2 SLP106 MDT CU ALQDS T02560133 VFR
Asheville Regional (AVL) KAVL 181954Z 19013G20KT 10SM FEW049 BKN060 23/11 A2994 RMK AO2 PK WND 14027/1928 SLP116 T02330106 VFR
Birmingham International (BHM) KBHM 181953Z 15013G20KT 10SM FEW045 BKN055 BKN070 BKN250 25/15 A2981 RMK AO2 SLP086 T02500150 VFR
Charlotte International (CLT) KCLT 181952Z 19015KT 10SM BKN055 BKN250 26/13 A2995 RMK AO2 SLP135 T02560133 VFR
Greensboro Piedmont-Triad (GSO) KGSO 181954Z 20020G25KT 10SM FEW050 SCT250 26/12 A2994 RMK AO2 SLP128 T02610122 VFR
Greenville-Spartanburg International (GSP) KGSP 181953Z 16012G18KT 10SM FEW050 SCT060 25/14 A2993 RMK AO2 SLP125 T02500139 VFR
Middle Georgia Regional Airport (MCN) KMCN 181953Z 18010G17KT 10SM SCT055 28/16 A2988 RMK AO2 SLP115 T02780156 VFR
Tri-Cities Airport (TRI) KTRI 181953Z 19016G24KT 10SM FEW070 SCT250 28/07 A2982 RMK AO2 PK WND 21026/1942 SLP077 T02780072 VFR
Knoxville Regional (TYS) KTYS 181953Z 23015KT 10SM FEW065 OVC250 26/12 A2979 RMK AO2 PK WND 23027/1902 SLP078 T02610117 VFR